^^
Grace C. Lehan Memorial Weather Station Historical Data
Daily Summary for June 15, 2022 Units:  Both    English   Metric
Daily Weekly Monthly Yearly
  High: Low: Average:
Temperature: 86.2 °F /  30.1 °C 59.5 °F /  15.3 °C 72 °F /  22.2 °C
Dew Point: 62.5 °F /  16.9 °C 56.3 °F /  13.5 °C 58.3 °F /  14.6 °C
Humidity: 90.4% 39% 64%
Wind Speed: 0.7mph /  1.1km/h - 0mph /  0km/h
Wind Gust: 6mph /  9.7km/h - -
Wind- - SSW
Pressure: 30.00 in /  1015.8 hPa 29.90 in /  1012.4 hPa -
Precipitation: 0.00 in /  0 mm    
 
 
Tabular Data for June 15, 2022
Time Temperature Dew Point Pressure Wind Wind Speed Wind Gust Humidity Rainfall Rate (Hourly) solar
00:00 66.7 °F /  19.3 °C 57 °F /  13.9 °C 30.00in /  1015.8hPa Calm     71% 0.00in /  0mm 0 W/m2
00:09 66.5 °F /  19.2 °C 56.8 °F /  13.8 °C 30.00in /  1015.8hPa Calm     71% 0.00in /  0mm 0 W/m2
00:14 66.4 °F /  19.1 °C 57 °F /  13.9 °C 30.00in /  1015.8hPa Calm     71.6% 0.00in /  0mm 0 W/m2
00:19 66.3 °F /  19.1 °C 57 °F /  13.9 °C 30.00in /  1015.8hPa Calm     72% 0.00in /  0mm 0 W/m2
00:24 66.3 °F /  19.1 °C 57.4 °F /  14.1 °C 30.00in /  1015.8hPa Calm     73% 0.00in /  0mm 0 W/m2
00:29 66.2 °F /  19 °C 57.3 °F /  14.1 °C 30.00in /  1015.8hPa Calm     73% 0.00in /  0mm 0 W/m2
00:34 66.1 °F /  18.9 °C 57.2 °F /  14 °C 30.00in /  1015.8hPa Calm     73% 0.00in /  0mm 0 W/m2
00:39 66.1 °F /  18.9 °C 57.3 °F /  14.1 °C 30.00in /  1015.8hPa Calm     73.2% 0.00in /  0mm 0 W/m2
00:44 66 °F /  18.9 °C 57.5 °F /  14.2 °C 29.99in /  1015.5hPa Calm     74% 0.00in /  0mm 0 W/m2
00:49 65.9 °F /  18.8 °C 57.4 °F /  14.1 °C 30.00in /  1015.8hPa Calm     74% 0.00in /  0mm 0 W/m2
00:54 65.8 °F /  18.8 °C 57.3 °F /  14.1 °C 30.00in /  1015.8hPa Calm     74% 0.00in /  0mm 0 W/m2
00:59 65.7 °F /  18.7 °C 57.3 °F /  14.1 °C 30.00in /  1015.8hPa Calm     74.5% 0.00in /  0mm 0 W/m2
01:04 65.6 °F /  18.7 °C 57.4 °F /  14.1 °C 30.00in /  1015.8hPa Calm     75% 0.00in /  0mm 0 W/m2
01:09 65.4 °F /  18.6 °C 57.3 °F /  14.1 °C 29.99in /  1015.5hPa Calm     75% 0.00in /  0mm 0 W/m2
01:14 65.3 °F /  18.5 °C 57.3 °F /  14.1 °C 29.99in /  1015.5hPa Calm     75.3% 0.00in /  0mm 0 W/m2
01:19 65.3 °F /  18.5 °C 57.5 °F /  14.2 °C 29.99in /  1015.5hPa Calm     76% 0.00in /  0mm 0 W/m2
01:24 65.2 °F /  18.4 °C 57.4 °F /  14.1 °C 29.99in /  1015.5hPa Calm     76% 0.00in /  0mm 0 W/m2
01:29 65.1 °F /  18.4 °C 57.3 °F /  14.1 °C 29.99in /  1015.5hPa Calm     76% 0.00in /  0mm 0 W/m2
01:34 65 °F /  18.3 °C 57.4 °F /  14.1 °C 29.99in /  1015.5hPa Calm     76.5% 0.00in /  0mm 0 W/m2
01:39 64.8 °F /  18.2 °C 57.5 °F /  14.2 °C 29.99in /  1015.5hPa Calm     77% 0.00in /  0mm 0 W/m2
01:44 64.7 °F /  18.2 °C 57.3 °F /  14.1 °C 29.99in /  1015.5hPa Calm     77% 0.00in /  0mm 0 W/m2
01:49 64.6 °F /  18.1 °C 57.3 °F /  14.1 °C 29.99in /  1015.5hPa Calm     77.1% 0.00in /  0mm 0 W/m2
01:54 64.5 °F /  18.1 °C 57.5 °F /  14.2 °C 29.99in /  1015.5hPa Calm     78% 0.00in /  0mm 0 W/m2
01:59 64.4 °F /  18 °C 57.4 °F /  14.1 °C 29.99in /  1015.5hPa Calm     78% 0.00in /  0mm 0 W/m2
02:04 64.3 °F /  17.9 °C 57.3 °F /  14.1 °C 29.99in /  1015.5hPa Calm     78% 0.00in /  0mm 0 W/m2
02:09 64.3 °F /  17.9 °C 57.3 °F /  14.1 °C 29.99in /  1015.5hPa Calm     78% 0.00in /  0mm 0 W/m2
02:14 64.2 °F /  17.9 °C 57.2 °F /  14 °C 29.99in /  1015.5hPa Calm     78% 0.00in /  0mm 0 W/m2
02:19 64.2 °F /  17.9 °C 57.2 °F /  14 °C 29.99in /  1015.5hPa Calm     78% 0.00in /  0mm 0 W/m2
02:24 64.1 °F /  17.8 °C 57.1 °F /  13.9 °C 29.99in /  1015.5hPa Calm     78% 0.00in /  0mm 0 W/m2
02:29 64 °F /  17.8 °C 57 °F /  13.9 °C 29.99in /  1015.5hPa Calm     78% 0.00in /  0mm 0 W/m2
02:34 63.9 °F /  17.7 °C 56.9 °F /  13.8 °C 29.99in /  1015.5hPa Calm     78% 0.00in /  0mm 0 W/m2
02:39 63.8 °F /  17.7 °C 56.8 °F /  13.8 °C 29.99in /  1015.5hPa Calm     78% 0.00in /  0mm 0 W/m2
02:44 63.7 °F /  17.6 °C 56.9 °F /  13.8 °C 29.99in /  1015.5hPa Calm     78.6% 0.00in /  0mm 0 W/m2
02:49 63.6 °F /  17.6 °C 57 °F /  13.9 °C 29.99in /  1015.5hPa Calm     79% 0.00in /  0mm 0 W/m2
02:54 63.5 °F /  17.5 °C 56.9 °F /  13.8 °C 29.99in /  1015.5hPa Calm     79% 0.00in /  0mm 0 W/m2
02:59 63.5 °F /  17.5 °C 56.8 °F /  13.8 °C 29.99in /  1015.5hPa Calm     79% 0.00in /  0mm 0 W/m2
03:04 63.3 °F /  17.4 °C 56.7 °F /  13.7 °C 29.99in /  1015.5hPa Calm     79% 0.00in /  0mm 0 W/m2
03:09 63.2 °F /  17.3 °C 56.7 °F /  13.7 °C 29.99in /  1015.5hPa Calm     79.2% 0.00in /  0mm 0 W/m2
03:14 63.2 °F /  17.3 °C 56.9 °F /  13.8 °C 29.99in /  1015.5hPa Calm     80% 0.00in /  0mm 0 W/m2
03:19 63.1 °F /  17.3 °C 56.8 °F /  13.8 °C 29.98in /  1015.1hPa Calm     80% 0.00in /  0mm 0 W/m2
03:24 62.9 °F /  17.2 °C 56.7 °F /  13.7 °C 29.98in /  1015.1hPa Calm     80% 0.00in /  0mm 0 W/m2
03:29 62.9 °F /  17.2 °C 56.9 °F /  13.8 °C 29.98in /  1015.1hPa Calm     80.8% 0.00in /  0mm 0 W/m2
03:34 62.8 °F /  17.1 °C 56.8 °F /  13.8 °C 29.98in /  1015.1hPa Calm     81% 0.00in /  0mm 0 W/m2
03:39 62.7 °F /  17.1 °C 56.8 °F /  13.8 °C 29.98in /  1015.1hPa Calm     81% 0.00in /  0mm 0 W/m2
03:44 62.6 °F /  17 °C 57 °F /  13.9 °C 29.98in /  1015.1hPa Calm     81.9% 0.00in /  0mm 0 W/m2
03:49 62.5 °F /  16.9 °C 56.9 °F /  13.8 °C 29.98in /  1015.1hPa Calm     82% 0.00in /  0mm 0 W/m2
03:54 62.3 °F /  16.8 °C 56.8 °F /  13.8 °C 29.98in /  1015.1hPa Calm     82% 0.00in /  0mm 0 W/m2
03:59 62.2 °F /  16.8 °C 56.7 °F /  13.7 °C 29.98in /  1015.1hPa Calm     82% 0.00in /  0mm 0 W/m2
04:00 62.2 °F /  16.8 °C 56.6 °F /  13.7 °C 29.98in /  1015.1hPa Calm     82% 0.00in /  0mm 0 W/m2
04:09 62 °F /  16.7 °C 56.8 °F /  13.8 °C 29.98in /  1015.1hPa Calm     83% 0.00in /  0mm 0 W/m2
04:14 61.9 °F /  16.6 °C 56.8 °F /  13.8 °C 29.98in /  1015.1hPa Calm     83.4% 0.00in /  0mm 0 W/m2
04:19 61.7 °F /  16.5 °C 56.9 °F /  13.8 °C 29.98in /  1015.1hPa Calm     84% 0.00in /  0mm 0 W/m2
04:24 61.5 °F /  16.4 °C 56.7 °F /  13.7 °C 29.98in /  1015.1hPa Calm     84% 0.00in /  0mm 0 W/m2
04:29 61.4 °F /  16.3 °C 56.5 °F /  13.6 °C 29.98in /  1015.1hPa Calm     84% 0.00in /  0mm 0 W/m2
04:34 61.2 °F /  16.2 °C 56.5 °F /  13.6 °C 29.98in /  1015.1hPa Calm     84.4% 0.00in /  0mm 0 W/m2
04:39 61.1 °F /  16.2 °C 56.5 °F /  13.6 °C 29.98in /  1015.1hPa Calm     85% 0.00in /  0mm 0 W/m2
04:44 60.9 °F /  16.1 °C 56.4 °F /  13.6 °C 29.98in /  1015.1hPa Calm     85.2% 0.00in /  0mm 0 W/m2
04:49 60.8 °F /  16 °C 56.6 °F /  13.7 °C 29.97in /  1014.8hPa Calm     85.9% 0.00in /  0mm 0 W/m2
04:54 60.7 °F /  15.9 °C 56.5 °F /  13.6 °C 29.97in /  1014.8hPa Calm     86% 0.00in /  0mm 0 W/m2
04:59 60.6 °F /  15.9 °C 56.4 °F /  13.6 °C 29.97in /  1014.8hPa Calm     86% 0.00in /  0mm 0 W/m2
05:04 60.5 °F /  15.8 °C 56.5 °F /  13.6 °C 29.97in /  1014.8hPa Calm     86.7% 0.00in /  0mm 0 W/m2
05:09 60.4 °F /  15.8 °C 56.5 °F /  13.6 °C 29.97in /  1014.8hPa Calm     87% 0.00in /  0mm 0 W/m2
05:14 60.3 °F /  15.7 °C 56.4 °F /  13.6 °C 29.97in /  1014.8hPa Calm     87% 0.00in /  0mm 0 W/m2
05:19 60.3 °F /  15.7 °C 56.5 °F /  13.6 °C 29.97in /  1014.8hPa Calm     87.4% 0.00in /  0mm 0 W/m2
05:24 60.3 °F /  15.7 °C 56.7 °F /  13.7 °C 29.97in /  1014.8hPa Calm     88% 0.00in /  0mm 0 W/m2
05:29 60.3 °F /  15.7 °C 56.7 °F /  13.7 °C 29.97in /  1014.8hPa Calm     88% 0.00in /  0mm 0 W/m2
05:34 60.2 °F /  15.7 °C 56.7 °F /  13.7 °C 29.97in /  1014.8hPa Calm     88% 0.00in /  0mm 0 W/m2
05:39 60.1 °F /  15.6 °C 56.6 °F /  13.7 °C 29.97in /  1014.8hPa Calm     88% 0.00in /  0mm 0 W/m2
05:44 60 °F /  15.6 °C 56.4 °F /  13.6 °C 29.97in /  1014.8hPa Calm     88% 0.00in /  0mm 0 W/m2
05:49 59.9 °F /  15.5 °C 56.4 °F /  13.6 °C 29.97in /  1014.8hPa Calm     88% 0.00in /  0mm 0 W/m2
05:54 59.9 °F /  15.5 °C 56.5 °F /  13.6 °C 29.97in /  1014.8hPa Calm     88.7% 0.00in /  0mm 0 W/m2
05:59 59.8 °F /  15.4 °C 56.6 °F /  13.7 °C 29.98in /  1015.1hPa Calm     89% 0.00in /  0mm 0 W/m2
06:04 59.8 °F /  15.4 °C 56.5 °F /  13.6 °C 29.98in /  1015.1hPa Calm     89% 0.00in /  0mm 5 W/m2
06:09 59.7 °F /  15.4 °C 56.4 °F /  13.6 °C 29.98in /  1015.1hPa Calm     89% 0.00in /  0mm 5 W/m2
06:14 59.6 °F /  15.3 °C 56.4 °F /  13.6 °C 29.97in /  1014.8hPa Calm     89% 0.00in /  0mm 7 W/m2
06:19 59.5 °F /  15.3 °C 56.3 °F /  13.5 °C 29.97in /  1014.8hPa Calm     89% 0.00in /  0mm 12 W/m2
06:24 59.5 °F /  15.3 °C 56.3 °F /  13.5 °C 29.98in /  1015.1hPa Calm     89% 0.00in /  0mm 16 W/m2
06:29 59.5 °F /  15.3 °C 56.3 °F /  13.5 °C 29.98in /  1015.1hPa Calm     89% 0.00in /  0mm 23 W/m2
06:34 59.5 °F /  15.3 °C 56.5 °F /  13.6 °C 29.98in /  1015.1hPa Calm     89.7% 0.00in /  0mm 30 W/m2
06:39 59.5 °F /  15.3 °C 56.6 °F /  13.7 °C 29.98in /  1015.1hPa WNW 0.1mph /  0.2km/h 2mph /  3.2km/h 90% 0.00in /  0mm 39 W/m2
06:44 59.6 °F /  15.3 °C 56.7 °F /  13.7 °C 29.98in /  1015.1hPa Calm   2mph /  3.2km/h 90% 0.00in /  0mm 81 W/m2
06:49 59.8 °F /  15.4 °C 56.9 °F /  13.8 °C 29.98in /  1015.1hPa Calm   2mph /  3.2km/h 90.4% 0.00in /  0mm 121 W/m2
06:54 60 °F /  15.6 °C 57.1 °F /  13.9 °C 29.98in /  1015.1hPa WNW 0.1mph /  0.2km/h 3mph /  4.8km/h 90% 0.00in /  0mm 105 W/m2
06:59 60.4 °F /  15.8 °C 57.4 °F /  14.1 °C 29.99in /  1015.5hPa Calm   3mph /  4.8km/h 90% 0.00in /  0mm 200 W/m2
07:04 61 °F /  16.1 °C 58.1 °F /  14.5 °C 29.99in /  1015.5hPa Calm   3mph /  4.8km/h 90% 0.00in /  0mm 207 W/m2
07:09 61.9 °F /  16.6 °C 58.7 °F /  14.8 °C 29.99in /  1015.5hPa Calm     89.1% 0.00in /  0mm 251 W/m2
07:14 62.9 °F /  17.2 °C 58.6 °F /  14.8 °C 29.99in /  1015.5hPa Calm     86.1% 0.00in /  0mm 267 W/m2
07:19 63.8 °F /  17.7 °C 59 °F /  15 °C 29.99in /  1015.5hPa Calm     84.3% 0.00in /  0mm 232 W/m2
07:24 64.8 °F /  18.2 °C 59.1 °F /  15.1 °C 29.99in /  1015.5hPa Calm     82% 0.00in /  0mm 234 W/m2
07:29 65.7 °F /  18.7 °C 59.5 °F /  15.3 °C 29.99in /  1015.5hPa Calm     80.4% 0.00in /  0mm 239 W/m2
07:34 66.5 °F /  19.2 °C 59.5 °F /  15.3 °C 29.99in /  1015.5hPa Calm     78% 0.00in /  0mm 232 W/m2
07:39 67 °F /  19.4 °C 59.2 °F /  15.1 °C 29.99in /  1015.5hPa Calm     76% 0.00in /  0mm 239 W/m2
07:44 67.5 °F /  19.7 °C 59.5 °F /  15.3 °C 29.99in /  1015.5hPa Calm     75.6% 0.00in /  0mm 279 W/m2
07:49 67.8 °F /  19.9 °C 59.5 °F /  15.3 °C 29.98in /  1015.1hPa Calm     74.8% 0.00in /  0mm 239 W/m2
07:54 68.1 °F /  20.1 °C 59.6 °F /  15.3 °C 29.98in /  1015.1hPa Calm     74% 0.00in /  0mm 246 W/m2
07:59 68.4 °F /  20.2 °C 59.3 °F /  15.2 °C 29.98in /  1015.1hPa Calm     72.8% 0.00in /  0mm 232 W/m2
08:00 68.5 °F /  20.3 °C 59.1 °F /  15.1 °C 29.98in /  1015.1hPa Calm     72% 0.00in /  0mm 211 W/m2
08:09 68.8 °F /  20.4 °C 59 °F /  15 °C 29.98in /  1015.1hPa Calm     71% 0.00in /  0mm 362 W/m2
08:14 69 °F /  20.6 °C 59.3 °F /  15.2 °C 29.98in /  1015.1hPa Calm     71.4% 0.00in /  0mm 401 W/m2
08:19 69 °F /  20.6 °C 59.4 °F /  15.2 °C 29.98in /  1015.1hPa Calm     71.5% 0.00in /  0mm 404 W/m2
08:24 69.3 °F /  20.7 °C 59.8 °F /  15.4 °C 29.98in /  1015.1hPa Calm     71.7% 0.00in /  0mm 378 W/m2
08:29 69.6 °F /  20.9 °C 59.8 °F /  15.4 °C 29.98in /  1015.1hPa Calm     70.9% 0.00in /  0mm 308 W/m2
08:34 70 °F /  21.1 °C 59.7 °F /  15.4 °C 29.98in /  1015.1hPa Calm     69.7% 0.00in /  0mm 313 W/m2
08:39 70 °F /  21.1 °C 59.4 °F /  15.2 °C 29.98in /  1015.1hPa Calm     69.3% 0.00in /  0mm 295 W/m2
08:44 69.8 °F /  21 °C 59.1 °F /  15.1 °C 29.98in /  1015.1hPa Calm     69% 0.00in /  0mm 346 W/m2
08:49 69.7 °F /  20.9 °C 59.1 °F /  15.1 °C 29.98in /  1015.1hPa Calm     69% 0.00in /  0mm 341 W/m2
08:54 69.9 °F /  21.1 °C 59.9 °F /  15.5 °C 29.97in /  1014.8hPa Calm     70.3% 0.00in /  0mm 341 W/m2
08:59 70.3 °F /  21.3 °C 60.2 °F /  15.7 °C 29.97in /  1014.8hPa Calm     70.2% 0.00in /  0mm 406 W/m2
09:04 70.7 °F /  21.5 °C 60 °F /  15.6 °C 29.97in /  1014.8hPa Calm     69.1% 0.00in /  0mm 482 W/m2
09:09 71.2 °F /  21.8 °C 61 °F /  16.1 °C 29.97in /  1014.8hPa Calm     70.1% 0.00in /  0mm 478 W/m2
09:14 71.7 °F /  22.1 °C 60.3 °F /  15.7 °C 29.98in /  1015.1hPa Calm     67.5% 0.00in /  0mm 468 W/m2
09:19 72.1 °F /  22.3 °C 61.5 °F /  16.4 °C 29.98in /  1015.1hPa Calm     69.2% 0.00in /  0mm 543 W/m2
09:24 72.9 °F /  22.7 °C 61.5 °F /  16.4 °C 29.98in /  1015.1hPa Calm     67.3% 0.00in /  0mm 543 W/m2
09:29 73.7 °F /  23.2 °C 61.5 °F /  16.4 °C 29.98in /  1015.1hPa Calm     65.6% 0.00in /  0mm 490 W/m2
09:34 74.1 °F /  23.4 °C 61.4 °F /  16.3 °C 29.98in /  1015.1hPa Calm     64.7% 0.00in /  0mm 592 W/m2
09:39 74.5 °F /  23.6 °C 60.7 °F /  15.9 °C 29.98in /  1015.1hPa Calm     62.3% 0.00in /  0mm 605 W/m2
09:44 74.8 °F /  23.8 °C 61.2 °F /  16.2 °C 29.98in /  1015.1hPa Calm     62.6% 0.00in /  0mm 570 W/m2
09:49 75.3 °F /  24.1 °C 61.8 °F /  16.6 °C 29.98in /  1015.1hPa Calm     63% 0.00in /  0mm 561 W/m2
09:54 75.6 °F /  24.2 °C 61 °F /  16.1 °C 29.98in /  1015.1hPa Calm     60.5% 0.00in /  0mm 608 W/m2
09:59 75.7 °F /  24.3 °C 60.8 °F /  16 °C 29.98in /  1015.1hPa Calm     60% 0.00in /  0mm 635 W/m2
10:04 75.7 °F /  24.3 °C 61.2 °F /  16.2 °C 29.98in /  1015.1hPa Calm     60.9% 0.00in /  0mm 606 W/m2
10:09 76.1 °F /  24.5 °C 61.8 °F /  16.6 °C 29.98in /  1015.1hPa Calm     61.2% 0.00in /  0mm 642 W/m2
10:14 76.8 °F /  24.9 °C 61.7 °F /  16.5 °C 29.98in /  1015.1hPa Calm     59.6% 0.00in /  0mm 642 W/m2
10:19 77.2 °F /  25.1 °C 60.9 °F /  16.1 °C 29.98in /  1015.1hPa Calm     57.2% 0.00in /  0mm 640 W/m2
10:24 77.4 °F /  25.2 °C 61.1 °F /  16.2 °C 29.98in /  1015.1hPa Calm     57.2% 0.00in /  0mm 715 W/m2
10:29 77.6 °F /  25.3 °C 61.1 °F /  16.2 °C 29.98in /  1015.1hPa Calm     56.9% 0.00in /  0mm 752 W/m2
10:34 77.9 °F /  25.5 °C 61.7 °F /  16.5 °C 29.98in /  1015.1hPa Calm     57.6% 0.00in /  0mm 700 W/m2
10:39 78.3 °F /  25.7 °C 61.9 °F /  16.6 °C 29.98in /  1015.1hPa Calm     57.2% 0.00in /  0mm 580 W/m2
10:44 78.7 °F /  25.9 °C 61.5 °F /  16.4 °C 29.98in /  1015.1hPa Calm     55.6% 0.00in /  0mm 682 W/m2
10:49 78.8 °F /  26 °C 61 °F /  16.1 °C 29.98in /  1015.1hPa Calm     54.4% 0.00in /  0mm 701 W/m2
10:54 79 °F /  26.1 °C 62.1 °F /  16.7 °C 29.98in /  1015.1hPa Calm     56.2% 0.00in /  0mm 712 W/m2
10:59 79.5 °F /  26.4 °C 61.7 °F /  16.5 °C 29.98in /  1015.1hPa Calm     54.5% 0.00in /  0mm 751 W/m2
11:04 79.9 °F /  26.6 °C 62.3 °F /  16.8 °C 29.98in /  1015.1hPa Calm     54.9% 0.00in /  0mm 761 W/m2
11:09 80.8 °F /  27.1 °C 62.5 °F /  16.9 °C 29.98in /  1015.1hPa Calm     53.9% 0.00in /  0mm 765 W/m2
11:14 81.3 °F /  27.4 °C 62.4 °F /  16.9 °C 29.97in /  1014.8hPa Calm     52.7% 0.00in /  0mm 788 W/m2
11:19 81.5 °F /  27.5 °C 61.5 °F /  16.4 °C 29.97in /  1014.8hPa Calm     50.8% 0.00in /  0mm 858 W/m2
11:24 81.8 °F /  27.7 °C 62.4 °F /  16.9 °C 29.97in /  1014.8hPa Calm     52% 0.00in /  0mm 858 W/m2
11:29 82.2 °F /  27.9 °C 62.2 °F /  16.8 °C 29.97in /  1014.8hPa Calm     50.9% 0.00in /  0mm 807 W/m2
11:34 82.5 °F /  28.1 °C 62.1 °F /  16.7 °C 29.97in /  1014.8hPa Calm     50.2% 0.00in /  0mm 816 W/m2
11:39 82.9 °F /  28.3 °C 61.4 °F /  16.3 °C 29.97in /  1014.8hPa Calm     48.3% 0.00in /  0mm 803 W/m2
11:44 82.8 °F /  28.2 °C 61.1 °F /  16.2 °C 29.96in /  1014.4hPa Calm     48% 0.00in /  0mm 770 W/m2
11:49 82.7 °F /  28.2 °C 61.4 °F /  16.3 °C 29.96in /  1014.4hPa Calm     48.7% 0.00in /  0mm 761 W/m2
11:54 82.5 °F /  28.1 °C 60.2 °F /  15.7 °C 29.96in /  1014.4hPa Calm     46.9% 0.00in /  0mm 784 W/m2
11:59 82.4 °F /  28 °C 59.4 °F /  15.2 °C 29.96in /  1014.4hPa Calm     45.7% 0.00in /  0mm 828 W/m2
12:00 82.3 °F /  27.9 °C 58.9 °F /  14.9 °C 29.96in /  1014.4hPa Calm     45% 0.00in /  0mm 814 W/m2
12:09 82.5 °F /  28.1 °C 59.3 °F /  15.2 °C 29.96in /  1014.4hPa Calm     45.4% 0.00in /  0mm 904 W/m2
12:14 82.7 °F /  28.2 °C 59.5 °F /  15.3 °C 29.96in /  1014.4hPa Calm     45.4% 0.00in /  0mm 914 W/m2
12:19 82.8 °F /  28.2 °C 59.1 °F /  15.1 °C 29.95in /  1014.1hPa Calm     44.6% 0.00in /  0mm 888 W/m2
12:24 82.8 °F /  28.2 °C 59 °F /  15 °C 29.95in /  1014.1hPa Calm     44.5% 0.00in /  0mm 914 W/m2
12:29 82.9 °F /  28.3 °C 59.5 °F /  15.3 °C 29.95in /  1014.1hPa Calm     45.1% 0.00in /  0mm 925 W/m2
12:34 83.1 °F /  28.4 °C 59.3 °F /  15.2 °C 29.95in /  1014.1hPa Calm     44.5% 0.00in /  0mm 886 W/m2
12:39 83.2 °F /  28.4 °C 59.4 °F /  15.2 °C 29.95in /  1014.1hPa Calm     44.6% 0.00in /  0mm 886 W/m2
12:44 83.5 °F /  28.6 °C 59.7 °F /  15.4 °C 29.95in /  1014.1hPa Calm     44.6% 0.00in /  0mm 807 W/m2
12:49 83.8 °F /  28.8 °C 58.4 °F /  14.7 °C 29.95in /  1014.1hPa Calm     42.3% 0.00in /  0mm 886 W/m2
12:54 84 °F /  28.9 °C 58.3 °F /  14.6 °C 29.95in /  1014.1hPa Calm     41.8% 0.00in /  0mm 891 W/m2
12:59 84 °F /  28.9 °C 56.6 °F /  13.7 °C 29.95in /  1014.1hPa Calm     39.3% 0.00in /  0mm 923 W/m2
13:04 84.1 °F /  28.9 °C 57.6 °F /  14.2 °C 29.95in /  1014.1hPa Calm     40.6% 0.00in /  0mm 965 W/m2
13:09 84.4 °F /  29.1 °C 57.7 °F /  14.3 °C 29.95in /  1014.1hPa Calm     40.4% 0.00in /  0mm 1044 W/m2
13:14 84.9 °F /  29.4 °C 58.1 °F /  14.5 °C 29.94in /  1013.8hPa Calm     40.3% 0.00in /  0mm 1049 W/m2
13:19 85.1 °F /  29.5 °C 59 °F /  15 °C 29.94in /  1013.8hPa Calm     41.3% 0.00in /  0mm 1056 W/m2
13:24 85.4 °F /  29.7 °C 58.6 °F /  14.8 °C 29.94in /  1013.8hPa Calm     40.3% 0.00in /  0mm 1056 W/m2
13:29 85.2 °F /  29.6 °C 58.6 °F /  14.8 °C 29.94in /  1013.8hPa Calm     40.7% 0.00in /  0mm 1044 W/m2
13:34 85 °F /  29.4 °C 59.6 °F /  15.3 °C 29.94in /  1013.8hPa Calm     42.3% 0.00in /  0mm 1035 W/m2
13:39 85.1 °F /  29.5 °C 59 °F /  15 °C 29.94in /  1013.8hPa Calm     41.4% 0.00in /  0mm 1028 W/m2
13:44 85.2 °F /  29.6 °C 59.1 °F /  15.1 °C 29.94in /  1013.8hPa Calm     41.4% 0.00in /  0mm 1021 W/m2
14:00 86.2 °F /  30.1 °C 61.1 °F /  16.2 °C 29.94in /  1013.8hPa Calm     43% 0.00in /  0mm 969 W/m2
14:30 83.6 °F /  28.7 °C 58.1 °F /  14.5 °C 29.93in /  1013.4hPa Calm     42% 0.00in /  0mm 200 W/m2
15:00 85 °F /  29.4 °C 58.7 °F /  14.8 °C 29.93in /  1013.4hPa Calm     41% 0.00in /  0mm 509 W/m2
15:30 85.2 °F /  29.6 °C 57.5 °F /  14.2 °C 29.92in /  1013.1hPa Calm     39% 0.00in /  0mm 623 W/m2
16:04 84.9 °F /  29.4 °C 57.9 °F /  14.4 °C 29.92in /  1013.1hPa Calm     40% 0.00in /  0mm 728 W/m2
16:09 84.8 °F /  29.3 °C 58 °F /  14.4 °C 29.92in /  1013.1hPa Calm     40.2% 0.00in /  0mm 729 W/m2
16:14 84.8 °F /  29.3 °C 58.2 °F /  14.6 °C 29.91in /  1012.8hPa Calm     40.6% 0.00in /  0mm 726 W/m2
16:19 84.8 °F /  29.3 °C 58.1 °F /  14.5 °C 29.91in /  1012.8hPa Calm     40.5% 0.00in /  0mm 158 W/m2
16:24 84.5 °F /  29.2 °C 59.5 °F /  15.3 °C 29.91in /  1012.8hPa Calm     42.8% 0.00in /  0mm 160 W/m2
16:29 84.4 °F /  29.1 °C 59.4 °F /  15.2 °C 29.90in /  1012.4hPa Calm     43% 0.00in /  0mm 142 W/m2
16:34 84.1 °F /  28.9 °C 59.6 °F /  15.3 °C 29.90in /  1012.4hPa Calm     43.6% 0.00in /  0mm 127 W/m2
16:39 84 °F /  28.9 °C 59.9 °F /  15.5 °C 29.90in /  1012.4hPa Calm     44.3% 0.00in /  0mm 104 W/m2
16:44 83.7 °F /  28.7 °C 60.3 °F /  15.7 °C 29.90in /  1012.4hPa Calm     45.2% 0.00in /  0mm 102 W/m2
16:49 83.5 °F /  28.6 °C 60 °F /  15.6 °C 29.90in /  1012.4hPa Calm     45.2% 0.00in /  0mm 88 W/m2
16:54 83.3 °F /  28.5 °C 59.5 °F /  15.3 °C 29.90in /  1012.4hPa Calm     44.7% 0.00in /  0mm 86 W/m2
16:59 83.2 °F /  28.4 °C 59.6 °F /  15.3 °C 29.90in /  1012.4hPa Calm     44.8% 0.00in /  0mm 79 W/m2
17:04 83.3 °F /  28.5 °C 59.6 °F /  15.3 °C 29.90in /  1012.4hPa Calm     44.8% 0.00in /  0mm 67 W/m2
17:09 83.3 °F /  28.5 °C 59.3 °F /  15.2 °C 29.90in /  1012.4hPa Calm     44.3% 0.00in /  0mm 63 W/m2
17:14 83.3 °F /  28.5 °C 58.8 °F /  14.9 °C 29.90in /  1012.4hPa Calm     43.6% 0.00in /  0mm 56 W/m2
17:19 83.3 °F /  28.5 °C 57.8 °F /  14.3 °C 29.90in /  1012.4hPa Calm     42% 0.00in /  0mm 58 W/m2
17:24 83.2 °F /  28.4 °C 58.7 °F /  14.8 °C 29.91in /  1012.8hPa Calm     43.5% 0.00in /  0mm 54 W/m2
17:29 83.2 °F /  28.4 °C 59.5 °F /  15.3 °C 29.90in /  1012.4hPa Calm     44.7% 0.00in /  0mm 53 W/m2
17:34 83.2 °F /  28.4 °C 59.7 °F /  15.4 °C 29.91in /  1012.8hPa Calm     45% 0.00in /  0mm 53 W/m2
17:39 83.1 °F /  28.4 °C 59.6 °F /  15.3 °C 29.91in /  1012.8hPa Calm     45% 0.00in /  0mm 49 W/m2
17:44 83 °F /  28.3 °C 59.1 °F /  15.1 °C 29.91in /  1012.8hPa Calm     44.4% 0.00in /  0mm 65 W/m2
17:49 82.9 °F /  28.3 °C 58.8 °F /  14.9 °C 29.91in /  1012.8hPa Calm     44.2% 0.00in /  0mm 70 W/m2
17:54 82.7 °F /  28.2 °C 59.1 °F /  15.1 °C 29.91in /  1012.8hPa Calm     44.9% 0.00in /  0mm 70 W/m2
17:59 82.4 °F /  28 °C 59.5 °F /  15.3 °C 29.91in /  1012.8hPa Calm     45.9% 0.00in /  0mm 58 W/m2
18:04 81.9 °F /  27.7 °C 59.1 °F /  15.1 °C 29.92in /  1013.1hPa Calm     46% 0.00in /  0mm 70 W/m2
18:09 81.5 °F /  27.5 °C 58.8 °F /  14.9 °C 29.92in /  1013.1hPa Calm     46% 0.00in /  0mm 70 W/m2
18:14 81.2 °F /  27.3 °C 58.5 °F /  14.7 °C 29.92in /  1013.1hPa Calm     46% 0.00in /  0mm 51 W/m2
18:19 80.8 °F /  27.1 °C 58.2 °F /  14.6 °C 29.92in /  1013.1hPa Calm     46.2% 0.00in /  0mm 39 W/m2
18:24 80.4 °F /  26.9 °C 58.1 °F /  14.5 °C 29.92in /  1013.1hPa Calm     46.5% 0.00in /  0mm 35 W/m2
18:29 80.2 °F /  26.8 °C 58.1 °F /  14.5 °C 29.93in /  1013.4hPa Calm     47% 0.00in /  0mm 35 W/m2
18:34 79.9 °F /  26.6 °C 57.9 °F /  14.4 °C 29.93in /  1013.4hPa Calm     47% 0.00in /  0mm 30 W/m2
18:39 79.7 °F /  26.5 °C 57.9 °F /  14.4 °C 29.93in /  1013.4hPa Calm     47.3% 0.00in /  0mm 33 W/m2
18:44 79.5 °F /  26.4 °C 58.1 °F /  14.5 °C 29.93in /  1013.4hPa Calm     48% 0.00in /  0mm 33 W/m2
18:49 79.3 °F /  26.3 °C 57.9 °F /  14.4 °C 29.93in /  1013.4hPa Calm     48% 0.00in /  0mm 26 W/m2
18:54 79.1 °F /  26.2 °C 58.3 °F /  14.6 °C 29.93in /  1013.4hPa Calm     49% 0.00in /  0mm 28 W/m2
18:59 78.9 °F /  26.1 °C 58.1 °F /  14.5 °C 29.93in /  1013.4hPa Calm     49% 0.00in /  0mm 25 W/m2
19:04 78.7 °F /  25.9 °C 58.1 °F /  14.5 °C 29.93in /  1013.4hPa Calm     49.2% 0.00in /  0mm 23 W/m2
19:09 78.6 °F /  25.9 °C 58.4 °F /  14.7 °C 29.94in /  1013.8hPa Calm     50% 0.00in /  0mm 21 W/m2
19:14 78.4 °F /  25.8 °C 58.8 °F /  14.9 °C 29.94in /  1013.8hPa Calm     51% 0.00in /  0mm 19 W/m2
19:19 78 °F /  25.6 °C 58.7 °F /  14.8 °C 29.94in /  1013.8hPa Calm     51.5% 0.00in /  0mm 18 W/m2
19:24 77.6 °F /  25.3 °C 58.1 °F /  14.5 °C 29.94in /  1013.8hPa Calm     51.1% 0.00in /  0mm 16 W/m2
19:29 77.2 °F /  25.1 °C 58.2 °F /  14.6 °C 29.94in /  1013.8hPa Calm   2mph /  3.2km/h 51.9% 0.00in /  0mm 12 W/m2
19:34 76.8 °F /  24.9 °C 58.2 °F /  14.6 °C 29.94in /  1013.8hPa Calm   2mph /  3.2km/h 52.7% 0.00in /  0mm 9 W/m2
19:39 76.5 °F /  24.7 °C 58.1 °F /  14.5 °C 29.95in /  1014.1hPa Calm   1mph /  1.6km/h 53% 0.00in /  0mm 5 W/m2
19:44 76.3 °F /  24.6 °C 58.2 °F /  14.6 °C 29.95in /  1014.1hPa ESE 0.7mph /  1.1km/h 6mph /  9.7km/h 53.7% 0.00in /  0mm 0 W/m2
19:49 76 °F /  24.4 °C 58.2 °F /  14.6 °C 29.95in /  1014.1hPa Calm   6mph /  9.7km/h 54% 0.00in /  0mm 0 W/m2
19:54 75.7 °F /  24.3 °C 58.1 °F /  14.5 °C 29.95in /  1014.1hPa Calm   6mph /  9.7km/h 54.3% 0.00in /  0mm 0 W/m2
19:59 75.5 °F /  24.2 °C 58.2 °F /  14.6 °C 29.95in /  1014.1hPa ESE 0.3mph /  0.5km/h 6mph /  9.7km/h 55% 0.00in /  0mm 0 W/m2
20:09 74.9 °F /  23.8 °C 58.2 °F /  14.6 °C 29.95in /  1014.1hPa Calm     56% 0.00in /  0mm 0 W/m2
20:14 74.8 °F /  23.8 °C 58.1 °F /  14.5 °C 29.95in /  1014.1hPa Calm     56% 0.00in /  0mm 0 W/m2
20:19 74.6 °F /  23.7 °C 57.9 °F /  14.4 °C 29.96in /  1014.4hPa Calm     56% 0.00in /  0mm 0 W/m2
20:24 74.4 °F /  23.6 °C 57.7 °F /  14.3 °C 29.96in /  1014.4hPa Calm     56.1% 0.00in /  0mm 0 W/m2
20:29 74.2 °F /  23.4 °C 58 °F /  14.4 °C 29.96in /  1014.4hPa Calm     57% 0.00in /  0mm 0 W/m2
20:34 74 °F /  23.3 °C 57.8 °F /  14.3 °C 29.96in /  1014.4hPa Calm     57% 0.00in /  0mm 0 W/m2
20:39 73.8 °F /  23.2 °C 57.7 °F /  14.3 °C 29.97in /  1014.8hPa Calm     57.2% 0.00in /  0mm 0 W/m2
20:44 73.6 °F /  23.1 °C 57.4 °F /  14.1 °C 29.97in /  1014.8hPa Calm     57% 0.00in /  0mm 0 W/m2
20:49 73.4 °F /  23 °C 57.7 °F /  14.3 °C 29.97in /  1014.8hPa Calm     57.9% 0.00in /  0mm 0 W/m2
20:54 73.3 °F /  22.9 °C 57.6 °F /  14.2 °C 29.97in /  1014.8hPa Calm     58% 0.00in /  0mm 0 W/m2
20:59 73.1 °F /  22.8 °C 57.4 °F /  14.1 °C 29.97in /  1014.8hPa Calm     58% 0.00in /  0mm 0 W/m2
21:04 72.9 °F /  22.7 °C 57.4 °F /  14.1 °C 29.97in /  1014.8hPa Calm     58.3% 0.00in /  0mm 0 W/m2
21:09 72.7 °F /  22.6 °C 57.5 °F /  14.2 °C 29.97in /  1014.8hPa Calm     59% 0.00in /  0mm 0 W/m2
21:14 72.5 °F /  22.5 °C 57.3 °F /  14.1 °C 29.98in /  1015.1hPa Calm     59% 0.00in /  0mm 0 W/m2
21:19 72.2 °F /  22.3 °C 57.2 °F /  14 °C 29.98in /  1015.1hPa Calm     59.2% 0.00in /  0mm 0 W/m2
21:24 72 °F /  22.2 °C 57.3 °F /  14.1 °C 29.98in /  1015.1hPa Calm     59.9% 0.00in /  0mm 0 W/m2
21:29 71.7 °F /  22.1 °C 57.1 °F /  13.9 °C 29.98in /  1015.1hPa Calm     60% 0.00in /  0mm 0 W/m2
21:34 71.5 °F /  21.9 °C 56.9 °F /  13.8 °C 29.98in /  1015.1hPa Calm     60% 0.00in /  0mm 0 W/m2
21:39 71.4 °F /  21.9 °C 57.1 °F /  13.9 °C 29.98in /  1015.1hPa Calm     60.6% 0.00in /  0mm 0 W/m2
21:44 71.2 °F /  21.8 °C 57.1 °F /  13.9 °C 29.98in /  1015.1hPa Calm     61% 0.00in /  0mm 0 W/m2
21:49 71.1 °F /  21.7 °C 56.9 °F /  13.8 °C 29.98in /  1015.1hPa Calm     61% 0.00in /  0mm 0 W/m2
21:54 70.9 °F /  21.6 °C 57 °F /  13.9 °C 29.98in /  1015.1hPa Calm     61.5% 0.00in /  0mm 0 W/m2
21:59 70.7 °F /  21.5 °C 57 °F /  13.9 °C 29.98in /  1015.1hPa Calm     62% 0.00in /  0mm 0 W/m2
22:04 70.5 °F /  21.4 °C 57 °F /  13.9 °C 29.98in /  1015.1hPa Calm     62.3% 0.00in /  0mm 0 W/m2
22:09 70.3 °F /  21.3 °C 56.9 °F /  13.8 °C 29.98in /  1015.1hPa Calm     62.5% 0.00in /  0mm 0 W/m2
22:14 70.1 °F /  21.2 °C 56.9 °F /  13.8 °C 29.98in /  1015.1hPa Calm     63% 0.00in /  0mm 0 W/m2
22:19 69.9 °F /  21.1 °C 56.8 °F /  13.8 °C 29.98in /  1015.1hPa Calm     63% 0.00in /  0mm 0 W/m2
22:24 69.8 °F /  21 °C 57 °F /  13.9 °C 29.98in /  1015.1hPa Calm     63.9% 0.00in /  0mm 0 W/m2
22:29 69.6 °F /  20.9 °C 56.9 °F /  13.8 °C 29.98in /  1015.1hPa Calm     64% 0.00in /  0mm 0 W/m2
22:34 69.5 °F /  20.8 °C 57 °F /  13.9 °C 29.98in /  1015.1hPa Calm     64.6% 0.00in /  0mm 0 W/m2
22:39 69.3 °F /  20.7 °C 57 °F /  13.9 °C 29.99in /  1015.5hPa Calm     65% 0.00in /  0mm 0 W/m2
22:44 69 °F /  20.6 °C 57.1 °F /  13.9 °C 29.98in /  1015.1hPa Calm     65.8% 0.00in /  0mm 0 W/m2
22:49 68.8 °F /  20.4 °C 57 °F /  13.9 °C 29.98in /  1015.1hPa Calm     66% 0.00in /  0mm 0 W/m2
22:54 68.6 °F /  20.3 °C 57 °F /  13.9 °C 29.98in /  1015.1hPa Calm     66.6% 0.00in /  0mm 0 W/m2
22:59 68.4 °F /  20.2 °C 57.1 °F /  13.9 °C 29.99in /  1015.5hPa Calm     67.2% 0.00in /  0mm 0 W/m2
23:04 68.2 °F /  20.1 °C 57.3 °F /  14.1 °C 29.99in /  1015.5hPa Calm     68% 0.00in /  0mm 0 W/m2
23:09 68 °F /  20 °C 57.2 °F /  14 °C 29.99in /  1015.5hPa Calm     68.3% 0.00in /  0mm 0 W/m2
23:14 67.8 °F /  19.9 °C 57.3 °F /  14.1 °C 29.99in /  1015.5hPa Calm     69% 0.00in /  0mm 0 W/m2
23:19 67.6 °F /  19.8 °C 57.4 °F /  14.1 °C 29.99in /  1015.5hPa Calm     69.8% 0.00in /  0mm 0 W/m2
23:24 67.4 °F /  19.7 °C 57.5 °F /  14.2 °C 29.99in /  1015.5hPa Calm     70.7% 0.00in /  0mm 0 W/m2
23:29 67.2 °F /  19.6 °C 57.4 °F /  14.1 °C 29.99in /  1015.5hPa Calm     71% 0.00in /  0mm 0 W/m2
23:34 66.9 °F /  19.4 °C 57.5 °F /  14.2 °C 30.00in /  1015.8hPa Calm     71.7% 0.00in /  0mm 0 W/m2
23:39 66.7 °F /  19.3 °C 57.4 °F /  14.1 °C 30.00in /  1015.8hPa Calm     72% 0.00in /  0mm 0 W/m2
23:44 66.5 °F /  19.2 °C 57.2 °F /  14 °C 29.99in /  1015.5hPa Calm     72% 0.00in /  0mm 0 W/m2
23:49 66.3 °F /  19.1 °C 57 °F /  13.9 °C 29.99in /  1015.5hPa Calm     72% 0.00in /  0mm 0 W/m2
23:54 66.1 °F /  18.9 °C 57.2 °F /  14 °C 30.00in /  1015.8hPa Calm     73% 0.00in /  0mm 0 W/m2
23:59 65.9 °F /  18.8 °C 57.1 °F /  13.9 °C 30.00in /  1015.8hPa Calm     73% 0.00in /  0mm 0 W/m2
Hartford County Weather
Compliments of Weather Underground - 4 mb